Time;durP1;ratioP1;P1;durP2;ratioP2;P2;SDS_P1;SDS_P2;PMS_P1;PMS_P2;Temp;Humidity;BMP_temperature;BMP_pressure;BME280_temperature;BME280_humidity;BME280_pressure;Samples;Min_cycle;Max_cycle;Signal;HPM_P1;HPM_P2
2022/01/24 00:01:25;;;;;;;69.28;62.33;;;;;;;-5.71;100.00;102268.53;5070015;28;20061;-82
2022/01/24 00:03:57;;;;;;;75.30;67.78;;;;;;;-5.62;100.00;102270.75;5069472;28;20049;-81
2022/01/24 00:06:24;;;;;;;66.40;60.03;;;;;;;-5.75;100.00;102264.38;5069478;28;20044;-82
2022/01/24 00:08:50;;;;;;;67.60;61.17;;;;;;;-5.67;100.00;102277.84;5055630;28;20042;-80
2022/01/24 00:11:21;;;;;;;67.85;60.60;;;;;;;-5.71;100.00;102283.22;5063128;28;20049;-82
2022/01/24 00:16:46;;;;;;;64.18;56.78;;;;;;;-5.70;100.00;102284.91;5048815;28;20055;-82
2022/01/24 00:27:29;;;;;;;67.22;60.38;;;;;;;-5.91;100.00;102302.13;5055714;28;20437;-84
2022/01/24 00:29:56;;;;;;;70.00;62.90;;;;;;;-5.87;100.00;102301.09;5057406;28;20114;-82
2022/01/24 00:34:53;;;;;;;71.90;63.17;;;;;;;-5.78;100.00;102299.00;5084266;27;20402;-82
2022/01/24 00:37:20;;;;;;;69.05;62.55;;;;;;;-5.92;100.00;102313.41;5064725;28;20049;-82
2022/01/24 00:39:47;;;;;;;73.10;65.60;;;;;;;-5.82;100.00;102309.53;5073494;28;20052;-82
2022/01/24 00:42:25;;;;;;;75.68;68.07;;;;;;;-5.72;100.00;102315.19;5071146;28;20048;-81
2022/01/24 00:45:04;;;;;;;67.63;60.38;;;;;;;-5.83;100.00;102313.03;5070589;28;20055;-82
2022/01/24 00:47:46;;;;;;;80.30;70.65;;;;;;;-5.75;100.00;102321.31;5068297;28;20048;-83
2022/01/24 00:53:18;;;;;;;91.95;69.20;;;;;;;-5.97;100.00;102313.59;5042286;28;19922;-80
2022/01/24 00:55:47;;;;;;;87.85;72.63;;;;;;;-6.04;100.00;102327.69;5063747;28;20059;-83
2022/01/24 00:58:15;;;;;;;138.43;85.97;;;;;;;-6.03;100.00;102324.19;5072756;28;20122;-80
2022/01/24 01:00:41;;;;;;;152.07;87.43;;;;;;;-5.98;100.00;102326.63;5074485;28;20061;-80
2022/01/24 01:03:08;;;;;;;72.85;64.32;;;;;;;-6.05;100.00;102324.25;5065732;28;20048;-82
2022/01/24 01:05:56;;;;;;;74.78;66.03;;;;;;;-5.88;100.00;102327.88;5065148;28;20448;-79
2022/01/24 01:19:20;;;;;;;75.03;62.55;;;;;;;-6.35;100.00;102320.25;5063986;28;20060;-83
2022/01/24 01:21:48;;;;;;;75.22;66.63;;;;;;;-6.46;100.00;102324.06;5060786;28;20382;-81
2022/01/24 01:24:16;;;;;;;93.60;71.72;;;;;;;-6.50;100.00;102332.00;5067257;28;20056;-82
2022/01/24 01:26:48;;;;;;;122.85;88.47;;;;;;;-6.56;100.00;102333.06;5056172;28;20053;-81
2022/01/24 01:29:19;;;;;;;96.60;68.93;;;;;;;-6.58;100.00;102334.03;5058230;28;20084;-83
2022/01/24 01:31:54;;;;;;;90.07;71.45;;;;;;;-6.75;100.00;102327.69;5068844;28;20559;-82
2022/01/24 01:34:38;;;;;;;91.07;77.47;;;;;;;-7.05;100.00;102324.50;5064819;28;20135;-80
2022/01/24 01:53:57;;;;;;;73.53;65.75;;;;;;;-6.51;100.00;102336.31;5049853;28;20052;-82
2022/01/24 01:56:24;;;;;;;73.78;65.80;;;;;;;-6.22;100.00;102331.81;5044929;28;20128;-80
2022/01/24 01:58:50;;;;;;;72.25;64.88;;;;;;;-5.98;100.00;102324.84;5046968;28;20066;-80
2022/01/24 02:01:17;;;;;;;64.75;58.83;;;;;;;-5.76;100.00;102327.41;5047840;28;20129;-82
2022/01/24 02:03:44;;;;;;;61.42;55.55;;;;;;;-5.59;100.00;102331.91;5051234;28;20064;-78
2022/01/24 02:06:12;;;;;;;64.72;58.97;;;;;;;-5.50;100.00;102331.53;5049530;28;20041;-80
2022/01/24 02:08:41;;;;;;;61.00;55.47;;;;;;;-5.41;100.00;102340.69;5045473;28;20119;-82
2022/01/24 02:11:11;;;;;;;59.63;54.03;;;;;;;-5.46;100.00;102332.25;5051074;28;20044;-82
2022/01/24 02:13:37;;;;;;;59.70;54.60;;;;;;;-5.36;100.00;102341.31;5049311;28;20461;-80
2022/01/24 02:16:13;;;;;;;62.40;56.53;;;;;;;-5.35;100.00;102348.22;5054758;28;20087;-81
2022/01/24 02:18:46;;;;;;;59.95;54.75;;;;;;;-5.33;100.00;102346.38;5046415;28;20389;-80
2022/01/24 02:21:27;;;;;;;63.00;57.50;;;;;;;-5.29;100.00;102340.19;5044576;28;20037;-80
2022/01/24 02:23:58;;;;;;;57.72;52.60;;;;;;;-5.32;100.00;102348.91;5052167;28;20049;-79
2022/01/24 02:26:25;;;;;;;61.58;55.83;;;;;;;-5.36;100.00;102349.94;5040592;28;20045;-83
2022/01/24 02:29:03;;;;;;;56.85;51.53;;;;;;;-5.31;100.00;102366.13;5049270;28;20107;-80
2022/01/24 02:34:24;;;;;;;59.30;53.70;;;;;;;-5.34;100.00;102368.00;5035668;28;20041;-79
2022/01/24 02:36:54;;;;;;;58.70;53.10;;;;;;;-5.34;100.00;102366.25;5046614;28;20136;-83
2022/01/24 02:53:20;;;;;;;54.55;49.53;;;;;;;-5.35;100.00;102372.34;5045107;28;20053;-82
2022/01/24 02:55:47;;;;;;;56.80;51.47;;;;;;;-5.39;100.00;102368.19;5044298;28;20053;-79
2022/01/24 02:58:16;;;;;;;55.03;50.20;;;;;;;-5.41;100.00;102364.84;5051202;28;20052;-80
2022/01/24 03:00:44;;;;;;;52.95;48.40;;;;;;;-5.25;100.00;102375.41;5158436;22;20800;-82
2022/01/24 03:03:11;;;;;;;52.20;47.15;;;;;;;-5.28;100.00;102372.09;5030848;28;20504;-80
2022/01/24 03:05:37;;;;;;;54.33;49.38;;;;;;;-5.31;100.00;102384.25;5032533;28;20466;-80
2022/01/24 03:08:05;;;;;;;50.88;46.75;;;;;;;-5.36;100.00;102381.00;5028928;28;20120;-79
2022/01/24 03:10:38;;;;;;;53.85;49.45;;;;;;;-5.34;100.00;102388.72;5033163;28;20045;-79
2022/01/24 03:13:20;;;;;;;56.47;51.45;;;;;;;-5.48;100.00;102393.63;5028884;28;20130;-83
2022/01/24 03:15:48;;;;;;;55.97;51.27;;;;;;;-5.41;100.00;102406.28;5030887;28;20489;-81
2022/01/24 03:18:15;;;;;;;60.25;53.15;;;;;;;-5.44;100.00;102397.78;5024291;28;20054;-82
2022/01/24 03:20:43;;;;;;;61.53;52.50;;;;;;;-5.33;100.00;102399.00;5026383;28;20111;-80
2022/01/24 03:23:11;;;;;;;70.28;58.15;;;;;;;-5.22;100.00;102408.13;5030943;28;20140;-82
2022/01/24 03:25:39;;;;;;;89.13;57.28;;;;;;;-5.23;100.00;102404.69;5031733;28;20111;-81
2022/01/24 03:28:06;;;;;;;89.45;56.85;;;;;;;-5.22;100.00;102400.34;5027556;28;20046;-79
2022/01/24 03:30:34;;;;;;;79.75;55.63;;;;;;;-5.14;100.00;102409.50;5033855;28;20475;-80
2022/01/24 03:33:01;;;;;;;59.92;53.45;;;;;;;-5.10;100.00;102415.38;5032564;28;20045;-81
2022/01/24 03:35:28;;;;;;;53.88;49.03;;;;;;;-5.14;100.00;102417.28;5024293;28;20469;-80
2022/01/24 03:37:55;;;;;;;52.47;47.97;;;;;;;-5.09;100.00;102415.31;5032660;28;20448;-82
2022/01/24 03:40:22;;;;;;;55.83;50.60;;;;;;;-5.20;100.00;102420.13;5028919;28;20042;-81
2022/01/24 03:42:50;;;;;;;55.63;50.35;;;;;;;-5.10;100.00;102425.75;5023806;28;20108;-79
2022/01/24 03:45:24;;;;;;;55.15;49.92;;;;;;;-5.32;100.00;102425.78;5033438;28;20045;-83
2022/01/24 03:48:03;;;;;;;56.63;51.08;;;;;;;-5.34;100.00;102428.44;5023857;28;20192;-79
2022/01/24 03:50:30;;;;;;;57.22;52.03;;;;;;;-5.55;100.00;102426.69;5024641;28;20103;-80
2022/01/24 03:52:57;;;;;;;55.88;50.50;;;;;;;-5.61;100.00;102427.75;5031454;28;20110;-79
2022/01/24 03:55:24;;;;;;;59.15;53.47;;;;;;;-5.54;100.00;102434.41;5021491;28;20037;-82
2022/01/24 03:57:52;;;;;;;56.60;51.35;;;;;;;-5.56;100.00;102441.38;5031048;28;20095;-81
2022/01/24 04:00:19;;;;;;;59.90;53.85;;;;;;;-5.57;100.00;102437.13;5029010;28;20114;-79
2022/01/24 04:02:48;;;;;;;57.33;51.85;;;;;;;-5.53;100.00;102440.44;5031637;28;20111;-81
2022/01/24 04:05:14;;;;;;;55.83;50.78;;;;;;;-5.43;100.00;102446.91;5029951;28;20058;-81
2022/01/24 04:07:42;;;;;;;56.08;50.83;;;;;;;-5.39;100.00;102458.00;5029667;28;20103;-82
2022/01/24 04:10:11;;;;;;;57.60;52.13;;;;;;;-5.35;100.00;102459.59;5027904;28;20141;-79
2022/01/24 04:12:40;;;;;;;59.38;52.28;;;;;;;-5.32;100.00;102462.88;5029391;28;20485;-80
2022/01/24 04:15:22;;;;;;;60.22;54.53;;;;;;;-5.32;100.00;102465.47;5030065;28;20051;-78
2022/01/24 04:17:58;;;;;;;55.58;50.40;;;;;;;-5.21;100.00;102459.84;5021621;28;20500;-81
2022/01/24 04:23:18;;;;;;;54.17;49.65;;;;;;;-5.18;100.00;102466.66;5023313;28;20056;-82
2022/01/24 04:25:45;;;;;;;57.55;51.45;;;;;;;-5.16;100.00;102465.72;5027721;28;20050;-79
2022/01/24 04:28:11;;;;;;;55.45;50.92;;;;;;;-5.10;100.00;102472.41;5024001;28;20037;-82
2022/01/24 04:30:40;;;;;;;58.60;53.38;;;;;;;-5.04;100.00;102473.91;5033017;28;20127;-80
2022/01/24 04:33:07;;;;;;;54.08;49.35;;;;;;;-4.99;100.00;102479.72;5027070;28;20049;-81
2022/01/24 04:35:33;;;;;;;52.22;47.92;;;;;;;-4.98;100.00;102479.69;5030374;28;20045;-81
2022/01/24 04:38:00;;;;;;;51.88;47.53;;;;;;;-5.03;100.00;102480.75;5027533;28;20053;-79
2022/01/24 04:40:28;;;;;;;53.25;48.72;;;;;;;-4.95;100.00;102494.25;5028686;28;20383;-82
2022/01/24 04:45:58;;;;;;;54.65;50.08;;;;;;;-4.96;100.00;102496.03;5090487;27;20393;-80
2022/01/24 04:51:16;;;;;;;53.35;48.70;;;;;;;-4.96;100.00;102485.66;5084240;28;20051;-78
2022/01/24 04:56:27;;;;;;;53.45;48.75;;;;;;;-4.91;100.00;102506.19;5047878;28;20044;-82
2022/01/24 04:58:54;;;;;;;55.47;50.67;;;;;;;-4.95;100.00;102497.69;5087205;28;20502;-82
2022/01/24 05:01:22;;;;;;;55.85;50.72;;;;;;;-4.85;100.00;102511.94;5083448;28;20045;-82
2022/01/24 05:03:49;;;;;;;53.63;48.92;;;;;;;-5.03;100.00;102509.28;5066734;28;20439;-82
2022/01/24 05:06:16;;;;;;;53.50;48.97;;;;;;;-4.88;100.00;102517.25;5066799;28;20481;-82
2022/01/24 05:08:43;;;;;;;54.53;49.67;;;;;;;-4.92;100.00;102520.91;5067621;28;20091;-82
2022/01/24 05:11:13;;;;;;;57.20;52.10;;;;;;;-4.99;100.00;102513.41;5066576;28;20041;-81
2022/01/24 05:24:54;;;;;;;59.65;54.15;;;;;;;-4.88;100.00;102535.41;5067678;28;20438;-81
2022/01/24 05:27:21;;;;;;;58.60;53.53;;;;;;;-4.93;100.00;102533.91;5066448;28;20052;-81
2022/01/24 05:29:48;;;;;;;57.70;52.10;;;;;;;-4.87;100.00;102529.34;5065247;28;20048;-81
2022/01/24 05:32:16;;;;;;;56.33;50.83;;;;;;;-4.82;100.00;102547.28;5067079;28;20048;-80
2022/01/24 05:34:43;;;;;;;56.90;51.75;;;;;;;-4.88;100.00;102544.94;5064054;28;20048;-80
2022/01/24 05:37:09;;;;;;;63.38;57.55;;;;;;;-4.90;100.00;102541.56;5065924;28;20117;-79
2022/01/24 05:39:36;;;;;;;65.70;59.45;;;;;;;-4.64;100.00;102540.50;5064655;28;20455;-82
2022/01/24 05:42:03;;;;;;;57.03;51.65;;;;;;;-4.68;100.00;102550.19;5067199;28;20045;-79
2022/01/24 05:44:30;;;;;;;54.33;49.83;;;;;;;-4.65;100.00;102560.44;5064495;28;20554;-82
2022/01/24 05:48:00;;;;;;;59.30;53.47;;;;;;;-4.64;100.00;102567.28;5027501;27;20405;-82
2022/01/24 05:50:27;;;;;;;58.20;52.83;;;;;;;-4.67;100.00;102562.22;5014112;28;20108;-80
2022/01/24 05:52:54;;;;;;;55.42;49.67;;;;;;;-4.76;100.00;102561.75;5020730;28;20104;-80
2022/01/24 05:55:21;;;;;;;57.03;51.78;;;;;;;-4.72;100.00;102568.50;5014045;28;20494;-81
2022/01/24 05:57:47;;;;;;;55.60;50.70;;;;;;;-4.71;100.00;102572.78;5016104;28;20438;-82
2022/01/24 06:00:15;;;;;;;56.67;50.97;;;;;;;-4.57;100.00;102569.63;5017540;28;20485;-82
2022/01/24 06:02:42;;;;;;;55.20;50.28;;;;;;;-4.70;100.00;102579.66;5009914;28;20495;-83
2022/01/24 06:05:10;;;;;;;56.33;51.15;;;;;;;-4.69;100.00;102577.03;5020043;28;20042;-79
2022/01/24 06:07:37;;;;;;;57.20;51.72;;;;;;;-4.82;100.00;102577.56;5014199;28;20043;-81
2022/01/24 06:10:04;;;;;;;56.35;51.40;;;;;;;-4.80;100.00;102578.34;5009348;28;20046;-82
2022/01/24 06:12:31;;;;;;;55.45;50.13;;;;;;;-4.92;100.00;102577.91;5011487;28;20046;-82
2022/01/24 06:14:58;;;;;;;54.53;49.33;;;;;;;-4.81;100.00;102582.69;5015803;28;20050;-81
2022/01/24 06:17:25;;;;;;;56.97;51.33;;;;;;;-4.77;100.00;102579.06;5010612;28;20076;-80
2022/01/24 06:19:52;;;;;;;59.08;53.30;;;;;;;-4.87;100.00;102578.59;5015485;28;20431;-82
2022/01/24 06:22:20;;;;;;;56.38;50.70;;;;;;;-4.70;100.00;102588.28;5018270;28;20046;-83
2022/01/24 06:24:47;;;;;;;59.60;52.55;;;;;;;-4.69;100.00;102599.50;5011817;28;20544;-82
2022/01/24 06:27:13;;;;;;;70.70;64.60;;;;;;;-4.69;100.00;102597.78;5018586;28;20046;-82
2022/01/24 06:29:40;;;;;;;77.93;70.20;;;;;;;-4.73;100.00;102598.78;5013150;28;20136;-79
2022/01/24 06:32:08;;;;;;;76.55;69.22;;;;;;;-4.73;100.00;102598.78;5016369;28;20380;-82
2022/01/24 06:34:36;;;;;;;79.68;72.05;;;;;;;-4.79;100.00;102608.53;5015941;28;20458;-83
2022/01/24 06:37:04;;;;;;;85.18;77.15;;;;;;;-4.81;100.00;102611.22;5016247;28;20046;-82
2022/01/24 06:39:32;;;;;;;82.15;74.38;;;;;;;-4.81;100.00;102597.38;5012143;28;20117;-82
2022/01/24 06:42:11;;;;;;;68.63;63.58;;;;;;;-0.41;100.00;102607.34;5005483;28;20042;-80
2022/01/24 06:44:38;;;;;;;78.90;71.63;;;;;;;-2.75;100.00;102600.53;5005360;28;20050;-79
2022/01/24 06:47:05;;;;;;;76.95;70.20;;;;;;;-4.35;100.00;102600.75;4998111;28;20510;-80
2022/01/24 06:49:32;;;;;;;79.68;72.68;;;;;;;-4.55;100.00;102604.13;5003282;28;20473;-80
2022/01/24 06:51:59;;;;;;;78.25;71.45;;;;;;;-4.53;100.00;102603.19;5001119;28;20057;-80
2022/01/24 06:54:26;;;;;;;80.93;73.28;;;;;;;-4.56;100.00;102618.84;4998861;28;20518;-83
2022/01/24 06:56:54;;;;;;;77.95;70.60;;;;;;;-4.49;100.00;102622.03;5004241;28;20054;-81
2022/01/24 06:59:21;;;;;;;82.32;74.50;;;;;;;-4.44;100.00;102620.13;4990445;28;20087;-80
2022/01/24 07:01:47;;;;;;;81.43;74.00;;;;;;;-4.49;100.00;102622.03;4978282;28;20054;-80
2022/01/24 07:04:14;;;;;;;83.05;74.45;;;;;;;-4.50;100.00;102630.75;4994641;28;20569;-81
2022/01/24 07:06:41;;;;;;;90.85;82.63;;;;;;;-4.37;100.00;102630.16;4995189;28;20054;-80
2022/01/24 07:09:07;;;;;;;87.28;78.90;;;;;;;-4.19;100.00;102635.53;4986024;28;20043;-80
2022/01/24 07:11:34;;;;;;;87.20;79.07;;;;;;;-4.19;100.00;102638.13;4995376;28;20112;-80
2022/01/24 07:14:06;;;;;;;88.28;80.00;;;;;;;-4.26;100.00;102627.16;4990110;28;20051;-79
2022/01/24 07:16:49;;;;;;;82.90;74.93;;;;;;;-4.04;100.00;102639.22;4984112;28;20050;-80
2022/01/24 07:19:15;;;;;;;83.68;75.68;;;;;;;-4.09;100.00;102644.59;4993352;28;20046;-82
2022/01/24 07:21:42;;;;;;;87.70;79.28;;;;;;;-3.94;100.00;102649.16;4992703;28;20046;-79
2022/01/24 07:24:09;;;;;;;88.03;80.07;;;;;;;-3.83;100.00;102651.31;4990929;28;20388;-79
2022/01/24 07:26:36;;;;;;;83.47;76.13;;;;;;;-3.66;100.00;102648.00;4990890;28;20050;-80
2022/01/24 07:29:04;;;;;;;85.05;77.22;;;;;;;-3.72;100.00;102653.47;4991253;28;20066;-80
2022/01/24 07:31:30;;;;;;;85.72;77.72;;;;;;;-3.84;100.00;102662.63;4978687;28;20117;-80
2022/01/24 07:33:57;;;;;;;81.82;74.47;;;;;;;-3.76;100.00;102663.09;4985741;28;20054;-80
2022/01/24 07:36:24;;;;;;;87.55;79.43;;;;;;;-3.86;100.00;102663.59;4990388;28;20109;-81
2022/01/24 07:38:51;;;;;;;95.75;85.95;;;;;;;-3.84;100.00;102661.75;4994547;28;20055;-80
2022/01/24 07:41:24;;;;;;;93.78;84.72;;;;;;;-3.86;100.00;102667.00;4988485;28;20376;-78
2022/01/24 07:43:51;;;;;;;93.38;83.68;;;;;;;-3.93;100.00;102670.78;4992296;28;20054;-79
2022/01/24 07:46:20;;;;;;;94.10;84.78;;;;;;;-3.88;100.00;102663.63;4994590;28;20120;-80
2022/01/24 07:48:47;;;;;;;91.90;83.40;;;;;;;-3.90;100.00;102670.66;4995104;28;20113;-82
2022/01/24 07:51:15;;;;;;;92.80;83.68;;;;;;;-3.64;100.00;102669.53;4987794;28;20054;-80
2022/01/24 07:53:42;;;;;;;98.03;89.05;;;;;;;-3.57;100.00;102678.78;4992150;28;20061;-82
2022/01/24 07:56:08;;;;;;;93.07;84.57;;;;;;;-3.69;100.00;102674.94;4995762;28;20116;-82
2022/01/24 07:58:35;;;;;;;98.93;90.20;;;;;;;-3.48;100.00;102685.28;4992663;28;20116;-78
2022/01/24 08:01:02;;;;;;;91.90;83.25;;;;;;;-3.50;100.00;102682.78;4992985;28;21487;-80
2022/01/24 08:03:30;;;;;;;93.38;84.63;;;;;;;-3.16;100.00;102681.28;4994373;28;20046;-79
2022/01/24 08:05:57;;;;;;;89.95;81.53;;;;;;;-3.49;100.00;102681.84;4994310;28;20474;-81
2022/01/24 08:08:24;;;;;;;92.78;84.78;;;;;;;-3.49;100.00;102687.06;4993255;28;20054;-80
2022/01/24 08:10:51;;;;;;;97.60;88.47;;;;;;;-3.47;100.00;102695.63;4990977;28;20050;-79
2022/01/24 08:13:17;;;;;;;96.10;87.03;;;;;;;-3.60;100.00;102688.44;4986006;28;20042;-79
2022/01/24 08:15:44;;;;;;;99.45;90.15;;;;;;;-3.59;100.00;102690.97;4999098;28;20042;-79
2022/01/24 08:18:11;;;;;;;97.78;88.05;;;;;;;-3.38;100.00;102696.16;4988849;28;20042;-81
2022/01/24 08:20:39;;;;;;;92.28;83.78;;;;;;;-3.51;100.00;102696.69;4995560;28;20121;-80
2022/01/24 08:23:06;;;;;;;89.95;82.00;;;;;;;-3.34;100.00;102705.50;4988067;28;20046;-78
2022/01/24 08:25:33;;;;;;;91.43;83.32;;;;;;;-3.38;100.00;102707.38;4990802;28;20234;-80
2022/01/24 08:27:59;;;;;;;87.53;79.50;;;;;;;-3.34;100.00;102700.28;4996490;28;20055;-79
2022/01/24 08:30:26;;;;;;;82.38;74.82;;;;;;;-3.43;100.00;102703.31;4990061;28;20094;-78
2022/01/24 08:32:53;;;;;;;78.45;71.93;;;;;;;-3.30;100.00;102713.09;4989906;28;20054;-81
2022/01/24 08:35:22;;;;;;;79.93;72.95;;;;;;;-3.08;100.00;102713.00;4991801;28;20534;-79
2022/01/24 08:37:51;;;;;;;87.25;79.13;;;;;;;-3.13;100.00;102711.50;4991952;28;20109;-81
2022/01/24 08:40:23;;;;;;;84.88;77.18;;;;;;;-3.09;100.00;102708.69;4991229;28;20046;-80
2022/01/24 08:42:59;;;;;;;83.60;75.88;;;;;;;-2.64;100.00;102711.88;4988346;28;20050;-79
2022/01/24 08:45:50;;;;;;;83.60;76.45;;;;;;;-2.28;100.00;102713.66;4991615;28;20172;-81
2022/01/24 08:48:19;;;;;;;82.43;75.50;;;;;;;-2.15;100.00;102719.94;4993689;28;20553;-81
2022/01/24 08:50:48;;;;;;;93.18;85.57;;;;;;;-1.43;100.00;102726.78;4992897;28;20050;-80
2022/01/24 08:53:17;;;;;;;94.05;86.10;;;;;;;-1.14;100.00;102727.88;4993916;28;20395;-80
2022/01/24 08:55:44;;;;;;;87.97;81.07;;;;;;;-1.09;100.00;102723.28;4990701;28;20141;-81
2022/01/24 08:58:14;;;;;;;82.63;75.80;;;;;;;-1.10;100.00;102724.19;4991944;28;20143;-79
2022/01/24 09:00:42;;;;;;;82.22;75.65;;;;;;;-1.18;100.00;102723.75;4986349;28;20129;-83
2022/01/24 09:03:09;;;;;;;82.78;76.10;;;;;;;-1.71;100.00;102720.38;4988495;28;20116;-80
2022/01/24 09:05:36;;;;;;;81.97;75.65;;;;;;;-1.88;100.00;102715.16;4988922;28;20050;-80
2022/01/24 09:08:03;;;;;;;77.10;71.18;;;;;;;-1.65;100.00;102729.66;4994425;28;20053;-80
2022/01/24 09:10:33;;;;;;;85.85;78.60;;;;;;;-1.94;100.00;102724.09;4994439;28;20447;-80
2022/01/24 09:12:59;;;;;;;84.25;77.13;;;;;;;-2.54;100.00;102737.41;4990730;28;20116;-80
2022/01/24 09:15:26;;;;;;;89.30;82.28;;;;;;;-2.11;100.00;102732.75;4994348;28;20108;-79
2022/01/24 09:17:53;;;;;;;94.20;86.78;;;;;;;-1.97;100.00;102732.06;4993824;28;20046;-81
2022/01/24 09:20:20;;;;;;;87.80;80.28;;;;;;;-1.70;100.00;102724.66;4990986;28;20058;-78
2022/01/24 09:22:49;;;;;;;83.72;77.07;;;;;;;-2.26;100.00;102735.25;4992608;28;20105;-81
2022/01/24 09:25:17;;;;;;;84.93;77.95;;;;;;;-2.08;100.00;102726.56;4993830;28;20057;-80
2022/01/24 09:27:47;;;;;;;79.85;73.65;;;;;;;-1.99;100.00;102738.28;4993201;28;20483;-81
2022/01/24 09:30:16;;;;;;;79.20;73.10;;;;;;;-1.83;100.00;102734.00;4994244;28;20050;-79
2022/01/24 09:32:43;;;;;;;78.93;72.63;;;;;;;-1.84;100.00;102734.94;4993305;28;20478;-80
2022/01/24 09:37:39;;;;;;;77.15;71.05;;;;;;;-1.75;100.00;102738.84;5084569;27;20398;-80
2022/01/24 09:40:07;;;;;;;78.13;71.80;;;;;;;-1.63;100.00;102736.47;5070134;28;20117;-80
2022/01/24 09:42:34;;;;;;;78.35;72.13;;;;;;;-1.79;100.00;102743.34;5067841;28;20128;-79
2022/01/24 09:45:01;;;;;;;80.68;74.82;;;;;;;-2.12;100.00;102728.47;5070119;28;20061;-82
2022/01/24 09:47:29;;;;;;;83.15;76.97;;;;;;;-2.19;100.00;102736.66;5062238;28;20118;-78
2022/01/24 09:49:56;;;;;;;84.03;77.70;;;;;;;-2.05;100.00;102723.81;5063660;28;20045;-81
2022/01/24 09:52:22;;;;;;;91.15;84.25;;;;;;;-2.07;100.00;102736.88;5065236;28;20090;-80
2022/01/24 09:54:51;;;;;;;89.13;81.82;;;;;;;-2.39;100.00;102730.63;5062197;28;20069;-79
2022/01/24 09:57:17;;;;;;;86.20;79.30;;;;;;;-2.29;100.00;102733.66;5056773;28;20426;-81
2022/01/24 09:59:44;;;;;;;87.32;80.25;;;;;;;-2.45;100.00;102732.66;5062735;28;20454;-78
2022/01/24 10:02:11;;;;;;;79.70;73.72;;;;;;;-2.43;100.00;102741.25;5061102;28;20114;-80
2022/01/24 10:04:39;;;;;;;72.35;66.60;;;;;;;-2.40;100.00;102735.91;5066401;28;20126;-80
2022/01/24 10:07:08;;;;;;;75.47;69.63;;;;;;;-2.18;100.00;102741.78;5052344;28;20502;-80
2022/01/24 10:09:37;;;;;;;78.72;72.85;;;;;;;-2.52;100.00;102729.50;5066083;28;20057;-78
2022/01/24 10:12:14;;;;;;;78.63;72.22;;;;;;;-2.36;100.00;102738.31;5062840;28;20048;-79
2022/01/24 10:17:27;;;;;;;75.32;69.32;;;;;;;-2.69;100.00;102734.66;5057467;28;20059;-81
2022/01/24 10:19:54;;;;;;;75.78;69.97;;;;;;;-2.66;100.00;102742.31;5057064;28;20128;-80
2022/01/24 10:22:24;;;;;;;75.60;69.57;;;;;;;-2.63;100.00;102730.03;5050620;28;20460;-81
2022/01/24 10:24:54;;;;;;;75.80;69.53;;;;;;;-2.56;100.00;102731.41;5061162;28;20060;-82
2022/01/24 10:27:24;;;;;;;78.60;72.00;;;;;;;-2.57;100.00;102726.31;5055976;28;20512;-81
2022/01/24 10:29:54;;;;;;;80.43;73.35;;;;;;;-2.47;100.00;102722.34;5062390;28;20057;-78
2022/01/24 10:32:31;;;;;;;79.55;72.65;;;;;;;-2.22;100.00;102734.19;5056166;28;20106;-80
2022/01/24 10:35:28;;;;;;;81.88;74.68;;;;;;;-2.14;100.00;102738.13;5063528;28;20522;-79
2022/01/24 10:38:32;;;;;;;78.28;72.05;;;;;;;-2.25;100.00;102722.16;5055364;28;20057;-79
2022/01/24 10:41:11;;;;;;;75.28;69.35;;;;;;;-2.27;100.00;102723.97;5056724;28;20045;-80
2022/01/24 10:43:41;;;;;;;81.45;74.00;;;;;;;-2.33;100.00;102716.47;5054629;28;20075;-82
2022/01/24 10:46:08;;;;;;;77.30;71.30;;;;;;;-2.15;100.00;102723.41;5062620;28;20473;-81
2022/01/24 10:48:39;;;;;;;79.25;73.15;;;;;;;-2.11;100.00;102724.09;5047633;28;20049;-81
2022/01/24 10:51:14;;;;;;;80.03;73.72;;;;;;;-2.34;100.00;102725.19;5051821;28;20045;-80
2022/01/24 10:53:44;;;;;;;87.22;80.43;;;;;;;-2.02;100.00;102721.06;5050581;28;20485;-79
2022/01/24 10:56:31;;;;;;;96.45;86.57;;;;;;;-1.94;100.00;102725.88;5047038;28;20050;-79
2022/01/24 10:59:17;;;;;;;81.93;75.63;;;;;;;-2.23;100.00;102732.50;5045273;28;20119;-79
2022/01/24 11:01:46;;;;;;;84.38;77.40;;;;;;;-2.26;100.00;102717.88;5053797;28;20056;-80
2022/01/24 11:04:14;;;;;;;89.85;82.57;;;;;;;-2.26;100.00;102717.03;5048517;28;20044;-80
2022/01/24 11:06:43;;;;;;;82.65;76.40;;;;;;;-2.20;100.00;102722.78;5054488;28;20405;-81
2022/01/24 11:09:15;;;;;;;82.20;75.57;;;;;;;-2.18;100.00;102725.31;5054551;28;20114;-78
2022/01/24 11:11:42;;;;;;;82.45;75.97;;;;;;;-2.24;100.00;102720.38;5053031;28;20115;-81
2022/01/24 11:14:15;;;;;;;83.13;76.53;;;;;;;-2.31;100.00;102719.84;5047032;28;20113;-78
2022/01/24 11:16:42;;;;;;;80.75;74.38;;;;;;;-2.26;100.00;102725.69;5040587;28;20041;-80
2022/01/24 11:19:15;;;;;;;83.00;76.85;;;;;;;-2.39;100.00;102722.84;5052165;28;20060;-81
2022/01/24 11:21:44;;;;;;;83.32;77.05;;;;;;;-2.18;100.00;102720.97;5053741;28;20057;-78
2022/01/24 11:24:17;;;;;;;89.93;83.00;;;;;;;-2.30;100.00;102726.72;5054906;28;20057;-80
2022/01/24 11:26:45;;;;;;;82.32;75.97;;;;;;;-2.19;100.00;102727.06;5038961;28;20445;-81
2022/01/24 11:29:13;;;;;;;85.40;78.88;;;;;;;-2.08;100.00;102718.75;5049579;28;20481;-81
2022/01/24 11:31:44;;;;;;;84.00;77.70;;;;;;;-2.10;100.00;102731.00;5044127;28;20057;-79
2022/01/24 11:34:28;;;;;;;82.68;76.68;;;;;;;-2.02;100.00;102717.63;5046553;28;20053;-80
2022/01/24 11:36:55;;;;;;;84.47;78.13;;;;;;;-2.12;100.00;102731.09;5044477;28;20081;-79
2022/01/24 11:39:23;;;;;;;84.55;78.05;;;;;;;-2.18;100.00;102730.50;5046261;28;20045;-79
2022/01/24 11:41:50;;;;;;;85.35;79.20;;;;;;;-2.11;100.00;102724.09;5045870;28;20456;-81
2022/01/24 11:44:21;;;;;;;81.22;75.22;;;;;;;-2.16;100.00;102733.91;5051740;28;20118;-79
2022/01/24 11:46:52;;;;;;;80.32;74.40;;;;;;;-2.23;100.00;102727.31;5052954;28;20053;-80
2022/01/24 11:49:21;;;;;;;81.05;74.75;;;;;;;-2.08;100.00;102727.41;5052021;28;20106;-79
2022/01/24 11:52:01;;;;;;;81.75;74.18;;;;;;;-2.19;100.00;102723.63;5052639;28;20049;-80
2022/01/24 11:54:43;;;;;;;75.60;69.90;;;;;;;-1.95;100.00;102717.22;5045481;28;20454;-79
2022/01/24 11:57:23;;;;;;;74.13;68.93;;;;;;;-1.99;100.00;102712.25;5041780;28;20056;-78
2022/01/24 11:59:53;;;;;;;77.57;72.18;;;;;;;-1.93;100.00;102715.41;5038672;28;20056;-81
2022/01/24 12:02:24;;;;;;;79.45;73.40;;;;;;;-1.90;100.00;102712.63;5045230;28;20049;-79
2022/01/24 12:05:02;;;;;;;86.05;78.72;;;;;;;-1.84;100.00;102708.88;5044354;28;20056;-79
2022/01/24 12:07:30;;;;;;;83.75;76.93;;;;;;;-1.70;100.00;102711.63;5039321;28;20060;-81
2022/01/24 12:10:38;;;;;;;85.03;78.47;;;;;;;-1.72;100.00;102716.09;5044375;28;20049;-79
2022/01/24 12:13:09;;;;;;;85.38;78.88;;;;;;;-1.61;100.00;102718.97;5052433;28;20045;-79
2022/01/24 12:15:53;;;;;;;84.20;78.07;;;;;;;-1.68;100.00;102717.59;5040772;28;20128;-78
2022/01/24 12:18:23;;;;;;;86.22;79.72;;;;;;;-1.63;100.00;102710.41;5046174;28;20057;-80
2022/01/24 12:20:52;;;;;;;88.35;81.32;;;;;;;-1.82;100.00;102708.78;5053815;28;20075;-78
2022/01/24 12:23:34;;;;;;;87.72;80.97;;;;;;;-1.68;100.00;102722.81;5053897;28;20130;-79
2022/01/24 12:26:05;;;;;;;86.45;79.55;;;;;;;-1.58;100.00;102714.53;5049396;28;20465;-80
2022/01/24 12:28:33;;;;;;;83.10;76.72;;;;;;;-1.57;100.00;102711.00;5047291;28;20398;-80
2022/01/24 12:31:03;;;;;;;82.53;76.32;;;;;;;-1.56;100.00;102715.31;5052758;28;20082;-80
2022/01/24 12:33:36;;;;;;;86.55;80.30;;;;;;;-1.48;100.00;102718.38;5053828;28;20114;-80
2022/01/24 12:36:06;;;;;;;63.10;58.88;;;;;;;-1.64;100.00;102720.91;5053232;28;20099;-80
2022/01/24 12:38:43;;;;;;;62.33;57.10;;;;;;;-1.71;100.00;102712.56;5050336;28;20122;-79
2022/01/24 12:41:20;;;;;;;63.55;57.55;;;;;;;-1.81;100.00;102715.72;5042881;28;20045;-79
2022/01/24 12:43:57;;;;;;;58.00;53.85;;;;;;;-1.67;100.00;102718.44;5044952;28;20044;-80